sensor_id;sensor_type;location;lat;lon;timestamp;temperature;humidity
2897;DHT22;1458;49.728;9.228;2022-07-29T00:01:06;19.30;67.60
2897;DHT22;1458;49.728;9.228;2022-07-29T00:03:35;19.20;67.40
2897;DHT22;1458;49.728;9.228;2022-07-29T00:06:08;19.20;68.20
2897;DHT22;1458;49.728;9.228;2022-07-29T00:08:39;19.10;68.30
2897;DHT22;1458;49.728;9.228;2022-07-29T00:11:07;19.20;67.90
2897;DHT22;1458;49.728;9.228;2022-07-29T00:13:35;19.20;68.50
2897;DHT22;1458;49.728;9.228;2022-07-29T00:16:06;19.20;68.50
2897;DHT22;1458;49.728;9.228;2022-07-29T00:18:34;19.20;68.60
2897;DHT22;1458;49.728;9.228;2022-07-29T00:21:05;19.30;70.00
2897;DHT22;1458;49.728;9.228;2022-07-29T00:23:40;19.20;70.20
2897;DHT22;1458;49.728;9.228;2022-07-29T00:26:09;19.20;70.40
2897;DHT22;1458;49.728;9.228;2022-07-29T00:28:37;19.10;70.30
2897;DHT22;1458;49.728;9.228;2022-07-29T00:31:06;19.00;70.60
2897;DHT22;1458;49.728;9.228;2022-07-29T00:33:35;19.10;69.40
2897;DHT22;1458;49.728;9.228;2022-07-29T00:36:08;19.00;69.10
2897;DHT22;1458;49.728;9.228;2022-07-29T00:38:36;19.00;69.10
2897;DHT22;1458;49.728;9.228;2022-07-29T00:41:10;18.90;68.60
2897;DHT22;1458;49.728;9.228;2022-07-29T00:43:37;18.90;67.20
2897;DHT22;1458;49.728;9.228;2022-07-29T00:46:05;19.00;66.20
2897;DHT22;1458;49.728;9.228;2022-07-29T00:48:32;18.90;66.00
2897;DHT22;1458;49.728;9.228;2022-07-29T00:51:03;19.00;65.90
2897;DHT22;1458;49.728;9.228;2022-07-29T00:53:34;18.90;65.90
2897;DHT22;1458;49.728;9.228;2022-07-29T00:56:07;18.80;64.30
2897;DHT22;1458;49.728;9.228;2022-07-29T00:58:34;18.90;62.90
2897;DHT22;1458;49.728;9.228;2022-07-29T01:01:02;19.00;64.20
2897;DHT22;1458;49.728;9.228;2022-07-29T01:03:32;18.90;65.10
2897;DHT22;1458;49.728;9.228;2022-07-29T01:06:00;18.80;65.20
2897;DHT22;1458;49.728;9.228;2022-07-29T01:08:27;18.80;65.40
2897;DHT22;1458;49.728;9.228;2022-07-29T01:10:57;18.80;66.10
2897;DHT22;1458;49.728;9.228;2022-07-29T01:13:25;18.80;66.00
2897;DHT22;1458;49.728;9.228;2022-07-29T01:15:57;18.70;66.40
2897;DHT22;1458;49.728;9.228;2022-07-29T01:18:31;18.70;66.20
2897;DHT22;1458;49.728;9.228;2022-07-29T01:21:21;18.80;65.90
2897;DHT22;1458;49.728;9.228;2022-07-29T01:24:20;18.80;65.60
2897;DHT22;1458;49.728;9.228;2022-07-29T01:27:01;18.70;66.40
2897;DHT22;1458;49.728;9.228;2022-07-29T01:29:37;18.50;66.80
2897;DHT22;1458;49.728;9.228;2022-07-29T01:32:11;18.60;66.90
2897;DHT22;1458;49.728;9.228;2022-07-29T01:34:46;18.60;67.60
2897;DHT22;1458;49.728;9.228;2022-07-29T01:37:21;18.60;68.10
2897;DHT22;1458;49.728;9.228;2022-07-29T01:39:53;18.40;69.10
2897;DHT22;1458;49.728;9.228;2022-07-29T01:42:27;18.30;69.70
2897;DHT22;1458;49.728;9.228;2022-07-29T01:45:05;18.20;69.50
2897;DHT22;1458;49.728;9.228;2022-07-29T01:47:38;18.20;70.30
2897;DHT22;1458;49.728;9.228;2022-07-29T01:50:12;18.10;70.70
2897;DHT22;1458;49.728;9.228;2022-07-29T01:52:46;17.90;71.40
2897;DHT22;1458;49.728;9.228;2022-07-29T01:55:17;17.90;71.90
2897;DHT22;1458;49.728;9.228;2022-07-29T01:57:48;18.10;70.50
2897;DHT22;1458;49.728;9.228;2022-07-29T02:00:17;18.10;70.50
2897;DHT22;1458;49.728;9.228;2022-07-29T02:02:47;18.20;70.00
2897;DHT22;1458;49.728;9.228;2022-07-29T02:05:18;18.20;69.90
2897;DHT22;1458;49.728;9.228;2022-07-29T02:07:48;18.10;71.00
2897;DHT22;1458;49.728;9.228;2022-07-29T02:10:20;18.20;70.70
2897;DHT22;1458;49.728;9.228;2022-07-29T02:12:50;18.20;71.30
2897;DHT22;1458;49.728;9.228;2022-07-29T02:15:21;18.10;70.90
2897;DHT22;1458;49.728;9.228;2022-07-29T02:17:53;18.10;71.30
2897;DHT22;1458;49.728;9.228;2022-07-29T02:20:24;18.10;70.70
2897;DHT22;1458;49.728;9.228;2022-07-29T02:22:53;18.10;70.60
2897;DHT22;1458;49.728;9.228;2022-07-29T02:25:22;18.20;70.50
2897;DHT22;1458;49.728;9.228;2022-07-29T02:27:52;18.20;70.40
2897;DHT22;1458;49.728;9.228;2022-07-29T02:30:22;18.20;70.50
2897;DHT22;1458;49.728;9.228;2022-07-29T02:32:51;18.10;70.40
2897;DHT22;1458;49.728;9.228;2022-07-29T02:35:21;18.20;70.80
2897;DHT22;1458;49.728;9.228;2022-07-29T02:37:50;18.10;70.70
2897;DHT22;1458;49.728;9.228;2022-07-29T02:40:34;18.00;70.60
2897;DHT22;1458;49.728;9.228;2022-07-29T02:43:04;18.00;70.00
2897;DHT22;1458;49.728;9.228;2022-07-29T02:45:34;18.00;70.10
2897;DHT22;1458;49.728;9.228;2022-07-29T02:48:06;18.00;71.60
2897;DHT22;1458;49.728;9.228;2022-07-29T02:50:40;17.80;73.70
2897;DHT22;1458;49.728;9.228;2022-07-29T02:53:15;17.70;72.90
2897;DHT22;1458;49.728;9.228;2022-07-29T02:55:48;17.60;73.70
2897;DHT22;1458;49.728;9.228;2022-07-29T02:58:24;17.60;73.60
2897;DHT22;1458;49.728;9.228;2022-07-29T03:00:57;17.50;73.90
2897;DHT22;1458;49.728;9.228;2022-07-29T03:03:30;17.40;74.20
2897;DHT22;1458;49.728;9.228;2022-07-29T03:06:01;17.20;74.10
2897;DHT22;1458;49.728;9.228;2022-07-29T03:08:32;17.20;75.40
2897;DHT22;1458;49.728;9.228;2022-07-29T03:11:00;17.00;76.00
2897;DHT22;1458;49.728;9.228;2022-07-29T03:13:32;17.00;76.30
2897;DHT22;1458;49.728;9.228;2022-07-29T03:16:04;17.10;75.50
2897;DHT22;1458;49.728;9.228;2022-07-29T03:18:32;17.10;75.90
2897;DHT22;1458;49.728;9.228;2022-07-29T03:21:00;17.00;74.60
2897;DHT22;1458;49.728;9.228;2022-07-29T03:23:30;16.90;75.50
2897;DHT22;1458;49.728;9.228;2022-07-29T03:25:58;16.80;76.10
2897;DHT22;1458;49.728;9.228;2022-07-29T03:28:26;16.60;76.80
2897;DHT22;1458;49.728;9.228;2022-07-29T03:30:54;16.30;77.40
2897;DHT22;1458;49.728;9.228;2022-07-29T03:33:23;16.20;79.00
2897;DHT22;1458;49.728;9.228;2022-07-29T03:35:50;16.10;80.00
2897;DHT22;1458;49.728;9.228;2022-07-29T03:38:18;16.10;81.10
2897;DHT22;1458;49.728;9.228;2022-07-29T03:40:51;16.10;83.00
2897;DHT22;1458;49.728;9.228;2022-07-29T03:43:23;16.10;84.10
2897;DHT22;1458;49.728;9.228;2022-07-29T03:45:54;16.30;84.40
2897;DHT22;1458;49.728;9.228;2022-07-29T03:48:24;16.30;84.60
2897;DHT22;1458;49.728;9.228;2022-07-29T03:50:53;16.20;84.40
2897;DHT22;1458;49.728;9.228;2022-07-29T03:53:21;16.20;84.20
2897;DHT22;1458;49.728;9.228;2022-07-29T03:55:54;16.20;84.80
2897;DHT22;1458;49.728;9.228;2022-07-29T03:58:28;16.10;84.40
2897;DHT22;1458;49.728;9.228;2022-07-29T04:00:58;15.90;84.70
2897;DHT22;1458;49.728;9.228;2022-07-29T04:03:27;16.00;85.00
2897;DHT22;1458;49.728;9.228;2022-07-29T04:05:59;15.90;85.70
2897;DHT22;1458;49.728;9.228;2022-07-29T04:08:27;16.00;85.80
2897;DHT22;1458;49.728;9.228;2022-07-29T04:10:55;16.10;85.40
2897;DHT22;1458;49.728;9.228;2022-07-29T04:13:23;16.10;85.40
2897;DHT22;1458;49.728;9.228;2022-07-29T04:15:50;16.20;85.10
2897;DHT22;1458;49.728;9.228;2022-07-29T04:18:18;16.30;85.10
2897;DHT22;1458;49.728;9.228;2022-07-29T04:20:47;16.50;84.40
2897;DHT22;1458;49.728;9.228;2022-07-29T04:23:14;16.60;83.40
2897;DHT22;1458;49.728;9.228;2022-07-29T04:25:42;16.70;83.00
2897;DHT22;1458;49.728;9.228;2022-07-29T04:28:10;16.60;83.70
2897;DHT22;1458;49.728;9.228;2022-07-29T04:30:38;16.70;83.60
2897;DHT22;1458;49.728;9.228;2022-07-29T04:33:06;16.80;82.90
2897;DHT22;1458;49.728;9.228;2022-07-29T04:35:36;16.80;82.60
2897;DHT22;1458;49.728;9.228;2022-07-29T04:38:06;16.90;82.00
2897;DHT22;1458;49.728;9.228;2022-07-29T04:40:33;17.00;81.00
2897;DHT22;1458;49.728;9.228;2022-07-29T04:43:01;17.40;80.50
2897;DHT22;1458;49.728;9.228;2022-07-29T04:45:29;18.30;76.60
2897;DHT22;1458;49.728;9.228;2022-07-29T04:47:56;19.30;73.20
2897;DHT22;1458;49.728;9.228;2022-07-29T04:50:24;20.10;69.80
2897;DHT22;1458;49.728;9.228;2022-07-29T04:52:52;20.80;66.90
2897;DHT22;1458;49.728;9.228;2022-07-29T04:55:21;20.40;65.80
2897;DHT22;1458;49.728;9.228;2022-07-29T04:57:48;20.00;66.20
2897;DHT22;1458;49.728;9.228;2022-07-29T05:00:16;19.70;67.30
2897;DHT22;1458;49.728;9.228;2022-07-29T05:02:44;19.40;67.60
2897;DHT22;1458;49.728;9.228;2022-07-29T05:05:11;19.20;68.80
2897;DHT22;1458;49.728;9.228;2022-07-29T05:07:40;19.10;69.30
2897;DHT22;1458;49.728;9.228;2022-07-29T05:10:08;19.10;68.80
2897;DHT22;1458;49.728;9.228;2022-07-29T05:12:38;19.20;68.30
2897;DHT22;1458;49.728;9.228;2022-07-29T05:15:07;19.20;68.80
2897;DHT22;1458;49.728;9.228;2022-07-29T05:17:35;19.10;68.40
2897;DHT22;1458;49.728;9.228;2022-07-29T05:20:03;18.90;68.20
2897;DHT22;1458;49.728;9.228;2022-07-29T05:22:32;18.90;68.80
2897;DHT22;1458;49.728;9.228;2022-07-29T05:24:59;18.80;68.00
2897;DHT22;1458;49.728;9.228;2022-07-29T05:27:28;18.90;68.20
2897;DHT22;1458;49.728;9.228;2022-07-29T05:29:57;19.20;68.00
2897;DHT22;1458;49.728;9.228;2022-07-29T05:32:24;20.20;65.60
2897;DHT22;1458;49.728;9.228;2022-07-29T05:34:52;21.50;61.90
2897;DHT22;1458;49.728;9.228;2022-07-29T05:37:20;21.70;59.30
2897;DHT22;1458;49.728;9.228;2022-07-29T05:39:47;21.70;58.00
2897;DHT22;1458;49.728;9.228;2022-07-29T05:42:15;21.30;58.80
2897;DHT22;1458;49.728;9.228;2022-07-29T05:44:43;20.60;60.60
2897;DHT22;1458;49.728;9.228;2022-07-29T05:47:12;20.20;62.20
2897;DHT22;1458;49.728;9.228;2022-07-29T05:49:39;19.80;63.20
2897;DHT22;1458;49.728;9.228;2022-07-29T05:52:08;19.50;64.50
2897;DHT22;1458;49.728;9.228;2022-07-29T05:54:35;19.40;64.70
2897;DHT22;1458;49.728;9.228;2022-07-29T05:57:03;19.20;65.20
2897;DHT22;1458;49.728;9.228;2022-07-29T05:59:32;19.20;65.30
2897;DHT22;1458;49.728;9.228;2022-07-29T06:02:02;19.10;66.30
2897;DHT22;1458;49.728;9.228;2022-07-29T06:04:32;19.10;66.10
2897;DHT22;1458;49.728;9.228;2022-07-29T06:07:00;19.10;66.00
2897;DHT22;1458;49.728;9.228;2022-07-29T06:09:28;19.20;65.60
2897;DHT22;1458;49.728;9.228;2022-07-29T06:11:56;19.20;65.20
2897;DHT22;1458;49.728;9.228;2022-07-29T06:14:24;19.20;65.50
2897;DHT22;1458;49.728;9.228;2022-07-29T06:16:52;19.30;65.10
2897;DHT22;1458;49.728;9.228;2022-07-29T06:19:19;19.20;65.10
2897;DHT22;1458;49.728;9.228;2022-07-29T06:21:49;19.30;64.70
2897;DHT22;1458;49.728;9.228;2022-07-29T06:24:16;19.30;64.80
2897;DHT22;1458;49.728;9.228;2022-07-29T06:26:44;19.30;64.90
2897;DHT22;1458;49.728;9.228;2022-07-29T06:29:12;19.50;64.50
2897;DHT22;1458;49.728;9.228;2022-07-29T06:31:39;20.10;64.40
2897;DHT22;1458;49.728;9.228;2022-07-29T06:34:07;20.20;63.90
2897;DHT22;1458;49.728;9.228;2022-07-29T06:36:35;20.50;62.70
2897;DHT22;1458;49.728;9.228;2022-07-29T06:39:05;21.00;61.80
2897;DHT22;1458;49.728;9.228;2022-07-29T06:41:33;21.20;59.50
2897;DHT22;1458;49.728;9.228;2022-07-29T06:44:08;21.30;58.10
2897;DHT22;1458;49.728;9.228;2022-07-29T06:46:36;21.70;58.70
2897;DHT22;1458;49.728;9.228;2022-07-29T06:49:03;21.90;55.00
2897;DHT22;1458;49.728;9.228;2022-07-29T06:51:31;21.80;54.50
2897;DHT22;1458;49.728;9.228;2022-07-29T06:53:58;21.80;55.40
2897;DHT22;1458;49.728;9.228;2022-07-29T06:56:27;22.00;55.60
2897;DHT22;1458;49.728;9.228;2022-07-29T06:58:55;21.60;54.50
2897;DHT22;1458;49.728;9.228;2022-07-29T07:01:22;21.40;55.30
2897;DHT22;1458;49.728;9.228;2022-07-29T07:03:50;21.60;54.20
2897;DHT22;1458;49.728;9.228;2022-07-29T07:06:18;22.00;53.50
2897;DHT22;1458;49.728;9.228;2022-07-29T07:08:45;22.40;52.40
2897;DHT22;1458;49.728;9.228;2022-07-29T07:11:13;22.80;51.00
2897;DHT22;1458;49.728;9.228;2022-07-29T07:13:42;22.90;48.70
2897;DHT22;1458;49.728;9.228;2022-07-29T07:16:10;23.00;48.80
2897;DHT22;1458;49.728;9.228;2022-07-29T07:18:37;23.20;48.10
2897;DHT22;1458;49.728;9.228;2022-07-29T07:21:07;23.50;47.80
2897;DHT22;1458;49.728;9.228;2022-07-29T07:23:35;23.90;45.60
2897;DHT22;1458;49.728;9.228;2022-07-29T07:26:06;24.20;44.50
2897;DHT22;1458;49.728;9.228;2022-07-29T07:28:33;24.10;43.10
2897;DHT22;1458;49.728;9.228;2022-07-29T07:31:05;24.50;42.40
2897;DHT22;1458;49.728;9.228;2022-07-29T07:33:32;24.50;39.50
2897;DHT22;1458;49.728;9.228;2022-07-29T07:36:00;24.40;39.40
2897;DHT22;1458;49.728;9.228;2022-07-29T07:38:27;24.20;40.60
2897;DHT22;1458;49.728;9.228;2022-07-29T07:40:55;24.20;41.00
2897;DHT22;1458;49.728;9.228;2022-07-29T07:43:22;24.40;39.60
2897;DHT22;1458;49.728;9.228;2022-07-29T07:45:50;24.80;38.60
2897;DHT22;1458;49.728;9.228;2022-07-29T07:48:19;24.90;36.50
2897;DHT22;1458;49.728;9.228;2022-07-29T07:50:47;25.00;36.60
2897;DHT22;1458;49.728;9.228;2022-07-29T07:53:15;24.70;35.60
2897;DHT22;1458;49.728;9.228;2022-07-29T07:55:43;24.40;37.50
2897;DHT22;1458;49.728;9.228;2022-07-29T07:58:12;24.50;36.00
2897;DHT22;1458;49.728;9.228;2022-07-29T08:00:39;24.70;36.60
2897;DHT22;1458;49.728;9.228;2022-07-29T08:03:07;24.80;34.80
2897;DHT22;1458;49.728;9.228;2022-07-29T08:05:35;24.90;35.80
2897;DHT22;1458;49.728;9.228;2022-07-29T08:08:03;24.90;32.90
2897;DHT22;1458;49.728;9.228;2022-07-29T08:10:31;24.90;32.90
2897;DHT22;1458;49.728;9.228;2022-07-29T08:13:23;25.00;34.00
2897;DHT22;1458;49.728;9.228;2022-07-29T08:15:52;25.10;32.30
2897;DHT22;1458;49.728;9.228;2022-07-29T08:18:26;25.40;31.20
2897;DHT22;1458;49.728;9.228;2022-07-29T08:20:55;25.80;31.20
2897;DHT22;1458;49.728;9.228;2022-07-29T08:23:24;25.80;30.60
2897;DHT22;1458;49.728;9.228;2022-07-29T08:25:53;25.50;31.60
2897;DHT22;1458;49.728;9.228;2022-07-29T08:28:20;25.70;32.10
2897;DHT22;1458;49.728;9.228;2022-07-29T08:30:48;25.80;30.90
2897;DHT22;1458;49.728;9.228;2022-07-29T08:33:15;26.00;31.20
2897;DHT22;1458;49.728;9.228;2022-07-29T08:35:43;25.80;31.10
2897;DHT22;1458;49.728;9.228;2022-07-29T08:38:13;25.70;30.70
2897;DHT22;1458;49.728;9.228;2022-07-29T08:40:41;25.70;32.40
2897;DHT22;1458;49.728;9.228;2022-07-29T08:43:09;25.60;32.90
2897;DHT22;1458;49.728;9.228;2022-07-29T08:45:44;25.50;31.80
2897;DHT22;1458;49.728;9.228;2022-07-29T08:48:12;25.70;32.00
2897;DHT22;1458;49.728;9.228;2022-07-29T08:50:41;25.70;31.70
2897;DHT22;1458;49.728;9.228;2022-07-29T08:53:13;25.70;31.90
2897;DHT22;1458;49.728;9.228;2022-07-29T08:55:43;25.60;32.20
2897;DHT22;1458;49.728;9.228;2022-07-29T08:58:11;25.70;32.20
2897;DHT22;1458;49.728;9.228;2022-07-29T09:00:42;25.50;32.50
2897;DHT22;1458;49.728;9.228;2022-07-29T09:03:14;25.40;33.70
2897;DHT22;1458;49.728;9.228;2022-07-29T09:05:43;25.80;33.10
2897;DHT22;1458;49.728;9.228;2022-07-29T09:08:13;25.90;33.10
2897;DHT22;1458;49.728;9.228;2022-07-29T09:10:42;26.20;32.10
2897;DHT22;1458;49.728;9.228;2022-07-29T09:13:10;26.20;32.80
2897;DHT22;1458;49.728;9.228;2022-07-29T09:15:37;26.30;31.50
2897;DHT22;1458;49.728;9.228;2022-07-29T09:18:05;26.40;31.70
2897;DHT22;1458;49.728;9.228;2022-07-29T09:20:32;26.20;32.70
2897;DHT22;1458;49.728;9.228;2022-07-29T09:23:15;26.50;33.50
2897;DHT22;1458;49.728;9.228;2022-07-29T09:25:42;26.70;32.90
2897;DHT22;1458;49.728;9.228;2022-07-29T09:28:11;26.90;31.90
2897;DHT22;1458;49.728;9.228;2022-07-29T09:30:50;27.00;32.10
2897;DHT22;1458;49.728;9.228;2022-07-29T09:33:18;27.00;31.10
2897;DHT22;1458;49.728;9.228;2022-07-29T09:35:46;27.10;32.50
2897;DHT22;1458;49.728;9.228;2022-07-29T09:38:27;27.40;31.60
2897;DHT22;1458;49.728;9.228;2022-07-29T09:40:59;27.40;30.60
2897;DHT22;1458;49.728;9.228;2022-07-29T09:43:27;27.40;31.20
2897;DHT22;1458;49.728;9.228;2022-07-29T09:45:55;27.40;31.80
2897;DHT22;1458;49.728;9.228;2022-07-29T09:48:24;27.60;32.40
2897;DHT22;1458;49.728;9.228;2022-07-29T09:50:52;27.60;32.40
2897;DHT22;1458;49.728;9.228;2022-07-29T09:53:32;27.50;31.60
2897;DHT22;1458;49.728;9.228;2022-07-29T09:56:01;27.60;31.00
2897;DHT22;1458;49.728;9.228;2022-07-29T09:58:31;28.00;31.40
2897;DHT22;1458;49.728;9.228;2022-07-29T10:01:00;28.80;28.90
2897;DHT22;1458;49.728;9.228;2022-07-29T10:03:29;29.10;30.00
2897;DHT22;1458;49.728;9.228;2022-07-29T10:06:07;29.10;29.70
2897;DHT22;1458;49.728;9.228;2022-07-29T10:08:37;29.00;31.70
2897;DHT22;1458;49.728;9.228;2022-07-29T10:11:10;28.60;32.30
2897;DHT22;1458;49.728;9.228;2022-07-29T10:13:38;28.20;33.20
2897;DHT22;1458;49.728;9.228;2022-07-29T10:16:06;27.80;34.30
2897;DHT22;1458;49.728;9.228;2022-07-29T10:18:34;27.80;36.20
2897;DHT22;1458;49.728;9.228;2022-07-29T10:21:05;28.00;36.90
2897;DHT22;1458;49.728;9.228;2022-07-29T10:23:34;28.00;34.40
2897;DHT22;1458;49.728;9.228;2022-07-29T10:26:05;27.60;34.50
2897;DHT22;1458;49.728;9.228;2022-07-29T10:28:33;27.30;36.90
2897;DHT22;1458;49.728;9.228;2022-07-29T10:31:08;27.20;37.60
2897;DHT22;1458;49.728;9.228;2022-07-29T10:33:51;27.30;38.70
2897;DHT22;1458;49.728;9.228;2022-07-29T10:36:40;27.60;37.00
2897;DHT22;1458;49.728;9.228;2022-07-29T10:39:31;27.70;36.80
2897;DHT22;1458;49.728;9.228;2022-07-29T10:42:14;27.70;36.20
2897;DHT22;1458;49.728;9.228;2022-07-29T10:44:46;27.40;37.40
2897;DHT22;1458;49.728;9.228;2022-07-29T10:47:22;27.40;37.50
2897;DHT22;1458;49.728;9.228;2022-07-29T10:49:58;27.30;38.60
2897;DHT22;1458;49.728;9.228;2022-07-29T10:52:52;27.30;38.40
2897;DHT22;1458;49.728;9.228;2022-07-29T10:55:32;27.30;38.70
2897;DHT22;1458;49.728;9.228;2022-07-29T10:58:17;27.40;40.00
2897;DHT22;1458;49.728;9.228;2022-07-29T11:00:46;28.10;38.40
2897;DHT22;1458;49.728;9.228;2022-07-29T11:03:47;28.40;36.00
2897;DHT22;1458;49.728;9.228;2022-07-29T11:06:18;28.40;37.00
2897;DHT22;1458;49.728;9.228;2022-07-29T11:08:45;28.70;35.70
2897;DHT22;1458;49.728;9.228;2022-07-29T11:11:42;28.90;34.30
2897;DHT22;1458;49.728;9.228;2022-07-29T11:14:13;28.90;34.10
2897;DHT22;1458;49.728;9.228;2022-07-29T11:17:00;28.70;33.70
2897;DHT22;1458;49.728;9.228;2022-07-29T11:19:30;28.40;34.90
2897;DHT22;1458;49.728;9.228;2022-07-29T11:21:58;28.50;34.90
2897;DHT22;1458;49.728;9.228;2022-07-29T11:24:27;28.20;35.80
2897;DHT22;1458;49.728;9.228;2022-07-29T11:27:14;28.20;37.60
2897;DHT22;1458;49.728;9.228;2022-07-29T11:29:55;28.30;36.50
2897;DHT22;1458;49.728;9.228;2022-07-29T11:32:36;28.20;37.30
2897;DHT22;1458;49.728;9.228;2022-07-29T11:35:13;28.40;36.50
2897;DHT22;1458;49.728;9.228;2022-07-29T11:37:43;28.40;35.60
2897;DHT22;1458;49.728;9.228;2022-07-29T11:40:16;28.40;35.90
2897;DHT22;1458;49.728;9.228;2022-07-29T11:42:45;28.50;35.20
2897;DHT22;1458;49.728;9.228;2022-07-29T11:45:17;28.70;35.40
2897;DHT22;1458;49.728;9.228;2022-07-29T11:47:50;28.70;35.70
2897;DHT22;1458;49.728;9.228;2022-07-29T11:50:29;28.70;36.40
2897;DHT22;1458;49.728;9.228;2022-07-29T11:52:58;28.40;35.20
2897;DHT22;1458;49.728;9.228;2022-07-29T11:55:27;28.20;36.10
2897;DHT22;1458;49.728;9.228;2022-07-29T11:57:58;28.10;35.60
2897;DHT22;1458;49.728;9.228;2022-07-29T12:00:30;28.20;36.20
2897;DHT22;1458;49.728;9.228;2022-07-29T12:03:00;28.20;35.50
2897;DHT22;1458;49.728;9.228;2022-07-29T12:05:35;28.10;35.30
2897;DHT22;1458;49.728;9.228;2022-07-29T12:08:09;28.00;36.70
2897;DHT22;1458;49.728;9.228;2022-07-29T12:10:39;27.80;37.80
2897;DHT22;1458;49.728;9.228;2022-07-29T12:13:07;27.60;44.20
2897;DHT22;1458;49.728;9.228;2022-07-29T12:15:37;27.20;44.80
2897;DHT22;1458;49.728;9.228;2022-07-29T12:18:13;27.00;50.80
2897;DHT22;1458;49.728;9.228;2022-07-29T12:20:41;26.90;57.20
2897;DHT22;1458;49.728;9.228;2022-07-29T12:23:10;26.80;63.00
2897;DHT22;1458;49.728;9.228;2022-07-29T12:25:40;26.50;69.10
2897;DHT22;1458;49.728;9.228;2022-07-29T12:28:09;26.40;69.40
2897;DHT22;1458;49.728;9.228;2022-07-29T12:30:45;26.20;72.40
2897;DHT22;1458;49.728;9.228;2022-07-29T12:33:26;26.20;68.70
2897;DHT22;1458;49.728;9.228;2022-07-29T12:35:58;26.10;66.90
2897;DHT22;1458;49.728;9.228;2022-07-29T12:38:26;26.10;69.50
2897;DHT22;1458;49.728;9.228;2022-07-29T12:40:55;26.20;70.40
2897;DHT22;1458;49.728;9.228;2022-07-29T12:43:24;26.40;73.20
2897;DHT22;1458;49.728;9.228;2022-07-29T12:45:55;26.70;72.60
2897;DHT22;1458;49.728;9.228;2022-07-29T12:48:34;27.10;63.80
2897;DHT22;1458;49.728;9.228;2022-07-29T12:51:05;27.50;64.00
2897;DHT22;1458;49.728;9.228;2022-07-29T12:53:35;27.50;58.30
2897;DHT22;1458;49.728;9.228;2022-07-29T12:56:15;27.20;58.40
2897;DHT22;1458;49.728;9.228;2022-07-29T12:58:43;27.10;57.90
2897;DHT22;1458;49.728;9.228;2022-07-29T13:01:15;26.80;57.80
2897;DHT22;1458;49.728;9.228;2022-07-29T13:03:46;26.50;59.60
2897;DHT22;1458;49.728;9.228;2022-07-29T13:06:37;26.50;62.60
2897;DHT22;1458;49.728;9.228;2022-07-29T13:09:09;26.20;63.20
2897;DHT22;1458;49.728;9.228;2022-07-29T13:11:40;25.90;64.00
2897;DHT22;1458;49.728;9.228;2022-07-29T13:14:11;25.50;64.30
2897;DHT22;1458;49.728;9.228;2022-07-29T13:17:03;25.30;64.70
2897;DHT22;1458;49.728;9.228;2022-07-29T13:19:37;25.10;66.50
2897;DHT22;1458;49.728;9.228;2022-07-29T13:22:08;24.90;67.60
2897;DHT22;1458;49.728;9.228;2022-07-29T13:24:48;24.20;73.60
2897;DHT22;1458;49.728;9.228;2022-07-29T13:27:17;23.50;78.00
2897;DHT22;1458;49.728;9.228;2022-07-29T13:29:47;22.90;83.30
2897;DHT22;1458;49.728;9.228;2022-07-29T13:32:19;22.70;86.80
2897;DHT22;1458;49.728;9.228;2022-07-29T13:34:47;22.50;90.80
2897;DHT22;1458;49.728;9.228;2022-07-29T13:37:15;22.00;94.70
2897;DHT22;1458;49.728;9.228;2022-07-29T13:39:43;21.70;98.40
2897;DHT22;1458;49.728;9.228;2022-07-29T13:42:11;21.30;99.90
2897;DHT22;1458;49.728;9.228;2022-07-29T13:44:39;21.30;99.90
2897;DHT22;1458;49.728;9.228;2022-07-29T13:47:07;21.20;99.90
2897;DHT22;1458;49.728;9.228;2022-07-29T13:49:37;21.10;99.90
2897;DHT22;1458;49.728;9.228;2022-07-29T13:52:05;21.10;99.90
2897;DHT22;1458;49.728;9.228;2022-07-29T13:54:33;21.10;99.90
2897;DHT22;1458;49.728;9.228;2022-07-29T13:57:03;20.80;99.90
2897;DHT22;1458;49.728;9.228;2022-07-29T13:59:31;20.50;99.90
2897;DHT22;1458;49.728;9.228;2022-07-29T14:01:58;20.40;99.90
2897;DHT22;1458;49.728;9.228;2022-07-29T14:04:26;20.20;99.90
2897;DHT22;1458;49.728;9.228;2022-07-29T14:06:55;20.20;99.90
2897;DHT22;1458;49.728;9.228;2022-07-29T14:09:22;20.20;99.90
2897;DHT22;1458;49.728;9.228;2022-07-29T14:11:50;20.20;99.90
2897;DHT22;1458;49.728;9.228;2022-07-29T14:14:18;20.20;99.90
2897;DHT22;1458;49.728;9.228;2022-07-29T14:16:46;20.10;99.90
2897;DHT22;1458;49.728;9.228;2022-07-29T14:19:14;19.90;99.90
2897;DHT22;1458;49.728;9.228;2022-07-29T14:21:41;19.90;99.90
2897;DHT22;1458;49.728;9.228;2022-07-29T14:24:10;19.80;99.90
2897;DHT22;1458;49.728;9.228;2022-07-29T14:26:38;19.80;99.90
2897;DHT22;1458;49.728;9.228;2022-07-29T14:29:05;19.80;99.90
2897;DHT22;1458;49.728;9.228;2022-07-29T14:31:32;19.60;99.90
2897;DHT22;1458;49.728;9.228;2022-07-29T14:34:00;19.50;99.90
2897;DHT22;1458;49.728;9.228;2022-07-29T14:36:28;19.50;99.90
2897;DHT22;1458;49.728;9.228;2022-07-29T14:38:56;19.50;99.90
2897;DHT22;1458;49.728;9.228;2022-07-29T14:41:25;19.70;99.90
2897;DHT22;1458;49.728;9.228;2022-07-29T14:43:53;19.70;99.90
2897;DHT22;1458;49.728;9.228;2022-07-29T14:46:21;19.70;99.90
2897;DHT22;1458;49.728;9.228;2022-07-29T14:48:48;19.80;99.90
2897;DHT22;1458;49.728;9.228;2022-07-29T14:51:16;19.70;99.90
2897;DHT22;1458;49.728;9.228;2022-07-29T14:53:43;19.70;99.90
2897;DHT22;1458;49.728;9.228;2022-07-29T14:56:11;19.60;99.90
2897;DHT22;1458;49.728;9.228;2022-07-29T14:58:40;19.60;99.90
2897;DHT22;1458;49.728;9.228;2022-07-29T15:01:07;19.50;99.90
2897;DHT22;1458;49.728;9.228;2022-07-29T15:03:35;19.50;99.90
2897;DHT22;1458;49.728;9.228;2022-07-29T15:06:06;19.40;99.90
2897;DHT22;1458;49.728;9.228;2022-07-29T15:08:33;19.50;99.90
2897;DHT22;1458;49.728;9.228;2022-07-29T15:11:01;19.80;99.90
2897;DHT22;1458;49.728;9.228;2022-07-29T15:13:31;19.60;99.90
2897;DHT22;1458;49.728;9.228;2022-07-29T15:16:02;19.60;99.90
2897;DHT22;1458;49.728;9.228;2022-07-29T15:18:32;19.40;99.90
2897;DHT22;1458;49.728;9.228;2022-07-29T15:20:59;19.30;99.90
2897;DHT22;1458;49.728;9.228;2022-07-29T15:23:28;19.20;99.90
2897;DHT22;1458;49.728;9.228;2022-07-29T15:25:55;19.20;99.90
2897;DHT22;1458;49.728;9.228;2022-07-29T15:28:23;19.20;99.90
2897;DHT22;1458;49.728;9.228;2022-07-29T15:30:50;19.30;99.90
2897;DHT22;1458;49.728;9.228;2022-07-29T15:33:20;19.50;99.90
2897;DHT22;1458;49.728;9.228;2022-07-29T15:35:47;19.60;99.90
2897;DHT22;1458;49.728;9.228;2022-07-29T15:38:15;19.60;99.90
2897;DHT22;1458;49.728;9.228;2022-07-29T15:40:43;19.60;99.90
2897;DHT22;1458;49.728;9.228;2022-07-29T15:43:12;19.50;99.90
2897;DHT22;1458;49.728;9.228;2022-07-29T15:45:41;19.20;99.90
2897;DHT22;1458;49.728;9.228;2022-07-29T15:48:32;19.10;99.90
2897;DHT22;1458;49.728;9.228;2022-07-29T15:50:59;19.00;99.90
2897;DHT22;1458;49.728;9.228;2022-07-29T15:53:27;19.00;99.90
2897;DHT22;1458;49.728;9.228;2022-07-29T15:55:54;18.90;99.90
2897;DHT22;1458;49.728;9.228;2022-07-29T15:58:22;18.90;99.90
2897;DHT22;1458;49.728;9.228;2022-07-29T16:00:50;19.00;99.90
2897;DHT22;1458;49.728;9.228;2022-07-29T16:03:17;19.20;99.90
2897;DHT22;1458;49.728;9.228;2022-07-29T16:05:47;19.10;99.90
2897;DHT22;1458;49.728;9.228;2022-07-29T16:08:14;18.90;99.90
2897;DHT22;1458;49.728;9.228;2022-07-29T16:10:42;18.80;99.90
2897;DHT22;1458;49.728;9.228;2022-07-29T16:13:09;18.70;99.90
2897;DHT22;1458;49.728;9.228;2022-07-29T16:15:37;18.60;99.90
2897;DHT22;1458;49.728;9.228;2022-07-29T16:18:05;18.60;99.90
2897;DHT22;1458;49.728;9.228;2022-07-29T16:20:33;18.60;99.90
2897;DHT22;1458;49.728;9.228;2022-07-29T16:23:03;18.50;99.90